createdAt,value
2022-08-31T00:01:14.124Z,14.73
2022-08-31T00:04:09.997Z,11.95
2022-08-31T00:06:38.028Z,12.10
2022-08-31T00:09:07.233Z,13.70
2022-08-31T00:11:42.997Z,13.15
2022-08-31T00:14:13.400Z,16.42
2022-08-31T00:16:54.621Z,16.95
2022-08-31T00:19:22.319Z,23.13
2022-08-31T00:21:57.040Z,15.40
2022-08-31T00:24:24.589Z,16.65
2022-08-31T00:26:52.164Z,14.85
2022-08-31T00:29:25.965Z,18.20
2022-08-31T00:31:53.570Z,16.27
2022-08-31T00:34:22.520Z,13.32
2022-08-31T00:36:56.969Z,17.42
2022-08-31T00:39:24.479Z,12.82
2022-08-31T00:41:52.322Z,14.10
2022-08-31T00:44:25.995Z,12.90
2022-08-31T00:46:53.767Z,12.65
2022-08-31T00:49:38.015Z,18.88
2022-08-31T00:52:10.501Z,18.58
2022-08-31T00:54:49.006Z,16.20
2022-08-31T00:57:17.971Z,13.82
2022-08-31T00:59:59.029Z,14.52
2022-08-31T01:02:26.929Z,13.95
2022-08-31T01:04:54.655Z,16.90
2022-08-31T01:07:28.956Z,16.13
2022-08-31T01:10:04.057Z,13.90
2022-08-31T01:12:48.966Z,15.23
2022-08-31T01:15:18.853Z,20.27
2022-08-31T01:17:55.980Z,18.40
2022-08-31T01:20:30.420Z,12.52
2022-08-31T01:23:27.091Z,18.15
2022-08-31T01:26:00.153Z,15.65
2022-08-31T01:28:37.018Z,15.85
2022-08-31T01:31:15.809Z,16.50
2022-08-31T01:34:00.063Z,17.42
2022-08-31T01:36:35.953Z,21.85
2022-08-31T01:39:12.006Z,16.63
2022-08-31T01:41:43.688Z,16.25
2022-08-31T01:44:20.095Z,15.88
2022-08-31T01:46:48.043Z,14.73
2022-08-31T01:49:17.306Z,14.13
2022-08-31T01:51:51.995Z,15.63
2022-08-31T01:54:20.361Z,12.90
2022-08-31T01:56:49.382Z,19.40
2022-08-31T01:59:27.003Z,17.00
2022-08-31T02:01:56.439Z,15.10
2022-08-31T02:04:34.000Z,14.02
2022-08-31T02:07:01.834Z,17.77
2022-08-31T02:09:30.354Z,13.98
2022-08-31T02:12:04.001Z,21.95
2022-08-31T02:14:31.432Z,15.43
2022-08-31T02:17:00.036Z,14.50
2022-08-31T02:19:34.032Z,14.77
2022-08-31T02:22:01.779Z,14.02
2022-08-31T02:24:29.312Z,17.42
2022-08-31T02:27:03.992Z,13.05
2022-08-31T02:29:31.441Z,13.13
2022-08-31T02:31:59.518Z,15.02
2022-08-31T02:34:34.012Z,13.40
2022-08-31T02:37:01.503Z,18.00
2022-08-31T02:39:29.129Z,19.13
2022-08-31T02:42:02.985Z,15.02
2022-08-31T02:44:30.411Z,13.35
2022-08-31T02:46:58.273Z,13.20
2022-08-31T02:49:32.018Z,13.65
2022-08-31T02:51:59.603Z,14.23
2022-08-31T02:54:27.253Z,13.15
2022-08-31T02:57:01.054Z,15.32
2022-08-31T02:59:28.720Z,17.58
2022-08-31T03:01:57.041Z,15.63
2022-08-31T03:04:31.027Z,13.65
2022-08-31T03:06:58.489Z,13.85
2022-08-31T03:09:26.040Z,14.07
2022-08-31T03:12:00.117Z,11.93
2022-08-31T03:14:29.790Z,10.50
2022-08-31T03:16:57.557Z,10.65
2022-08-31T03:19:32.011Z,13.70
2022-08-31T03:21:59.728Z,12.85
2022-08-31T03:24:28.331Z,11.63
2022-08-31T03:27:03.005Z,18.55
2022-08-31T03:29:31.595Z,12.50
2022-08-31T03:32:01.359Z,10.02
2022-08-31T03:34:35.051Z,13.93
2022-08-31T03:37:02.864Z,15.35
2022-08-31T03:39:30.703Z,17.05
2022-08-31T03:42:04.993Z,13.65
2022-08-31T03:44:32.784Z,11.68
2022-08-31T03:47:00.496Z,12.90
2022-08-31T03:49:35.002Z,13.05
2022-08-31T03:52:02.584Z,12.02
2022-08-31T03:54:30.080Z,11.63
2022-08-31T03:57:20.017Z,13.50
2022-08-31T03:59:47.455Z,12.57
2022-08-31T04:02:14.921Z,13.13
2022-08-31T04:04:48.994Z,10.98
2022-08-31T04:07:16.514Z,9.98
2022-08-31T04:09:44.851Z,11.07
2022-08-31T04:12:26.015Z,12.30
2022-08-31T04:14:55.419Z,12.40
2022-08-31T04:17:23.096Z,13.02
2022-08-31T04:19:59.551Z,13.43
2022-08-31T04:22:27.052Z,13.80
2022-08-31T04:24:54.479Z,14.40
2022-08-31T04:27:28.015Z,13.52
2022-08-31T04:29:55.666Z,11.80
2022-08-31T04:32:23.096Z,13.52
2022-08-31T04:34:58.009Z,11.93
2022-08-31T04:37:25.471Z,12.40
2022-08-31T04:39:59.349Z,15.40
2022-08-31T04:42:36.017Z,11.43
2022-08-31T04:45:03.650Z,14.52
2022-08-31T04:47:31.786Z,14.30
2022-08-31T04:50:07.023Z,11.93
2022-08-31T04:52:34.579Z,11.40
2022-08-31T04:55:02.117Z,9.38
2022-08-31T04:57:38.057Z,11.05
2022-08-31T05:00:06.967Z,10.48
2022-08-31T05:02:34.542Z,7.63
2022-08-31T05:05:09.120Z,8.82
2022-08-31T05:07:38.132Z,11.02
2022-08-31T05:10:06.679Z,8.10
2022-08-31T05:12:41.277Z,8.27
2022-08-31T05:18:56.195Z,10.00
2022-08-31T05:21:30.398Z,6.20
2022-08-31T05:24:07.287Z,8.20
2022-08-31T05:26:38.351Z,7.35
2022-08-31T05:29:18.139Z,5.93
2022-08-31T05:31:51.470Z,8.13
2022-08-31T05:34:28.142Z,6.68
2022-08-31T05:37:00.211Z,10.80
2022-08-31T05:39:35.057Z,7.40
2022-08-31T05:42:02.774Z,9.02
2022-08-31T05:44:33.476Z,8.95
2022-08-31T05:47:08.083Z,8.80
2022-08-31T05:49:37.296Z,12.73
2022-08-31T05:52:05.537Z,8.52
2022-08-31T05:54:43.310Z,9.63
2022-08-31T05:57:11.926Z,10.23
2022-08-31T05:59:40.388Z,9.07
2022-08-31T06:02:30.056Z,9.75
2022-08-31T06:05:04.412Z,8.88
2022-08-31T06:07:39.129Z,11.65
2022-08-31T06:10:07.097Z,14.25
2022-08-31T06:12:58.843Z,12.07
2022-08-31T06:15:26.522Z,12.20
2022-08-31T06:18:03.493Z,14.02
2022-08-31T06:20:31.849Z,13.60
2022-08-31T06:22:59.320Z,12.77
2022-08-31T06:25:34.052Z,13.63
2022-08-31T06:28:14.382Z,16.33
2022-08-31T06:30:55.507Z,16.92
2022-08-31T06:33:23.444Z,13.70
2022-08-31T06:35:58.057Z,14.63
2022-08-31T06:38:26.466Z,25.25
2022-08-31T06:40:56.672Z,20.65
2022-08-31T06:43:31.157Z,24.40
2022-08-31T06:45:59.320Z,24.92
2022-08-31T06:48:27.045Z,24.60
2022-08-31T06:51:09.349Z,28.30
2022-08-31T06:53:40.463Z,22.17
2022-08-31T06:56:27.223Z,19.42
2022-08-31T06:58:55.008Z,21.63
2022-08-31T07:01:45.042Z,23.75
2022-08-31T07:04:15.262Z,22.80
2022-08-31T07:06:56.234Z,22.90
2022-08-31T07:09:26.227Z,26.67
2022-08-31T07:12:07.247Z,20.05
2022-08-31T07:14:35.811Z,26.88
2022-08-31T07:17:04.066Z,23.63
2022-08-31T07:19:44.964Z,18.30
2022-08-31T07:22:15.276Z,22.58
2022-08-31T07:24:43.498Z,19.15
2022-08-31T07:27:25.057Z,19.90
2022-08-31T07:29:52.613Z,17.98
2022-08-31T07:32:25.834Z,18.33
2022-08-31T07:35:01.701Z,17.55
2022-08-31T07:37:48.157Z,19.25
2022-08-31T07:40:43.226Z,26.08
2022-08-31T07:43:10.945Z,23.50
2022-08-31T07:45:39.968Z,20.77
2022-08-31T07:48:15.153Z,20.17
2022-08-31T07:50:45.919Z,25.70
2022-08-31T07:53:14.893Z,18.58
2022-08-31T07:55:52.189Z,22.92
2022-08-31T07:58:22.707Z,16.83
2022-08-31T08:00:50.467Z,17.63
2022-08-31T08:03:25.196Z,17.40
2022-08-31T08:05:53.532Z,16.27
2022-08-31T08:08:23.085Z,18.67
2022-08-31T08:10:58.269Z,21.02
2022-08-31T08:13:33.134Z,18.55
2022-08-31T08:16:07.300Z,18.75
2022-08-31T08:18:37.568Z,21.90
2022-08-31T08:21:06.018Z,15.95
2022-08-31T08:23:48.443Z,14.93
2022-08-31T08:26:21.238Z,18.05
2022-08-31T08:28:57.431Z,13.70
2022-08-31T08:31:26.076Z,15.93
2022-08-31T08:33:53.878Z,14.80
2022-08-31T08:36:28.321Z,13.32
2022-08-31T08:38:57.462Z,12.10
2022-08-31T08:41:27.175Z,17.88
2022-08-31T08:44:05.273Z,14.15
2022-08-31T08:46:56.110Z,14.60
2022-08-31T08:49:50.869Z,12.93
2022-08-31T08:52:21.040Z,12.40
2022-08-31T08:54:57.152Z,14.98
2022-08-31T08:57:33.152Z,17.23
2022-08-31T09:00:15.469Z,13.82
2022-08-31T09:03:02.160Z,11.70
2022-08-31T09:05:48.585Z,13.63
2022-08-31T09:08:22.956Z,12.25
2022-08-31T09:11:26.437Z,11.15
2022-08-31T09:14:25.666Z,12.93
2022-08-31T09:17:39.403Z,10.70
2022-08-31T09:20:12.326Z,12.48
2022-08-31T09:22:59.482Z,11.05
2022-08-31T09:25:38.749Z,10.82
2022-08-31T09:28:15.447Z,10.90
2022-08-31T09:30:52.830Z,10.52
2022-08-31T09:33:58.663Z,10.70
2022-08-31T09:36:41.208Z,10.18
2022-08-31T09:39:37.469Z,10.68
2022-08-31T09:42:29.181Z,11.85
2022-08-31T09:45:23.559Z,9.82
2022-08-31T09:47:52.830Z,10.32
2022-08-31T09:50:48.524Z,10.00
2022-08-31T09:53:46.342Z,9.63
2022-08-31T09:56:27.359Z,9.20
2022-08-31T09:59:02.829Z,11.38
2022-08-31T10:01:52.291Z,10.82
2022-08-31T10:04:27.944Z,10.68
2022-08-31T10:07:45.174Z,12.02
2022-08-31T10:10:32.804Z,12.27
2022-08-31T10:14:04.194Z,13.57
2022-08-31T10:16:51.810Z,18.02
2022-08-31T10:19:39.825Z,15.65
2022-08-31T10:22:25.602Z,15.18
2022-08-31T10:25:22.831Z,16.73
2022-08-31T10:28:15.606Z,19.40
2022-08-31T10:30:54.891Z,19.02
2022-08-31T10:33:52.234Z,17.33
2022-08-31T10:36:26.871Z,16.92
2022-08-31T10:38:57.947Z,20.25
2022-08-31T10:41:55.843Z,21.38
2022-08-31T10:44:42.337Z,25.60
2022-08-31T10:47:33.901Z,22.38
2022-08-31T10:50:05.621Z,26.30
2022-08-31T10:53:02.502Z,25.80
2022-08-31T10:55:46.769Z,21.90
2022-08-31T10:58:34.187Z,26.73
2022-08-31T11:01:27.172Z,25.23
2022-08-31T11:04:18.921Z,20.08
2022-08-31T11:07:08.359Z,19.98
2022-08-31T11:09:55.530Z,20.67
2022-08-31T11:12:42.686Z,16.65
2022-08-31T11:15:52.701Z,14.32
2022-08-31T11:18:40.419Z,12.90
2022-08-31T11:21:52.745Z,12.25
2022-08-31T11:24:43.947Z,11.80
2022-08-31T11:27:29.890Z,13.07
2022-08-31T11:30:13.301Z,11.23
2022-08-31T11:32:57.886Z,13.20
2022-08-31T11:35:55.943Z,12.13
2022-08-31T11:38:48.975Z,11.77
2022-08-31T11:41:48.976Z,12.30
2022-08-31T11:44:51.527Z,11.88
2022-08-31T11:47:35.687Z,12.10
2022-08-31T11:50:57.570Z,11.95
2022-08-31T11:53:36.515Z,17.85
2022-08-31T11:56:13.623Z,11.13
2022-08-31T11:58:42.623Z,14.02
2022-08-31T12:01:25.603Z,12.93
2022-08-31T12:04:07.789Z,9.93
2022-08-31T12:06:46.571Z,10.73
2022-08-31T12:10:02.597Z,10.95
2022-08-31T12:12:57.602Z,13.15
2022-08-31T12:15:49.957Z,11.45
2022-08-31T12:18:56.518Z,15.35
2022-08-31T12:21:56.025Z,15.52
2022-08-31T12:25:08.548Z,14.98
2022-08-31T12:31:33.573Z,14.73
2022-08-31T12:34:18.904Z,13.88
2022-08-31T12:36:57.647Z,17.85
2022-08-31T12:39:28.673Z,12.93
2022-08-31T12:42:10.553Z,19.30
2022-08-31T12:44:49.949Z,15.40
2022-08-31T12:47:29.016Z,12.95
2022-08-31T12:50:11.897Z,12.65
2022-08-31T12:53:10.534Z,13.00
2022-08-31T12:55:49.471Z,18.52
2022-08-31T12:58:26.526Z,14.18
2022-08-31T13:01:09.605Z,16.77
2022-08-31T13:03:46.548Z,15.35
2022-08-31T13:06:37.945Z,15.18
2022-08-31T13:09:13.608Z,14.98
2022-08-31T13:12:06.547Z,14.52
2022-08-31T13:14:50.584Z,13.65
2022-08-31T13:17:22.211Z,16.60
2022-08-31T13:19:59.566Z,16.42
2022-08-31T13:22:41.472Z,16.75
2022-08-31T13:25:42.597Z,17.08
2022-08-31T13:28:13.962Z,16.27
2022-08-31T13:30:55.371Z,13.75
2022-08-31T13:33:31.356Z,15.80
2022-08-31T13:36:16.652Z,14.93
2022-08-31T13:38:53.412Z,13.63
2022-08-31T13:41:45.576Z,13.40
2022-08-31T13:44:17.049Z,13.23
2022-08-31T13:47:09.710Z,13.00
2022-08-31T13:49:40.803Z,12.23
2022-08-31T13:52:42.536Z,12.90
2022-08-31T13:55:13.114Z,11.98
2022-08-31T13:57:41.727Z,13.25
2022-08-31T14:00:42.592Z,15.90
2022-08-31T14:03:32.129Z,12.55
2022-08-31T14:06:30.642Z,12.75
2022-08-31T14:09:05.390Z,14.32
2022-08-31T14:11:49.608Z,15.57
2022-08-31T14:14:29.937Z,14.07
2022-08-31T14:17:07.645Z,13.68
2022-08-31T14:19:39.508Z,13.10
2022-08-31T14:22:39.822Z,13.25
2022-08-31T14:25:12.329Z,12.65
2022-08-31T14:27:48.567Z,14.57
2022-08-31T14:30:16.200Z,13.75
2022-08-31T14:32:45.824Z,12.38
2022-08-31T14:35:20.582Z,13.73
2022-08-31T14:38:01.692Z,13.40
2022-08-31T14:40:36.645Z,14.88
2022-08-31T14:43:04.276Z,15.27
2022-08-31T14:45:32.018Z,17.60
2022-08-31T14:48:06.685Z,14.25
2022-08-31T14:50:34.602Z,12.82
2022-08-31T14:53:02.572Z,13.20
2022-08-31T14:55:36.759Z,12.07
2022-08-31T14:58:08.617Z,11.73
2022-08-31T15:00:53.934Z,13.55
2022-08-31T15:03:24.599Z,12.35
2022-08-31T15:05:59.719Z,12.82
2022-08-31T15:08:38.591Z,13.20
2022-08-31T15:11:16.713Z,13.48
2022-08-31T15:13:51.662Z,10.02
2022-08-31T15:16:25.851Z,9.52
2022-08-31T15:18:54.722Z,11.95
2022-08-31T15:21:22.605Z,12.02
2022-08-31T15:23:57.578Z,14.00
2022-08-31T15:26:25.328Z,15.75
2022-08-31T15:28:52.987Z,11.52
2022-08-31T15:31:31.755Z,10.13
2022-08-31T15:34:00.598Z,10.40
2022-08-31T15:36:28.534Z,11.93
2022-08-31T15:39:03.596Z,11.80
2022-08-31T15:41:31.308Z,11.98
2022-08-31T15:43:59.152Z,10.48
2022-08-31T15:46:51.687Z,12.93
2022-08-31T15:49:19.547Z,11.00
2022-08-31T15:51:49.281Z,10.68
2022-08-31T15:54:25.615Z,11.38
2022-08-31T15:56:54.530Z,9.57
2022-08-31T15:59:25.683Z,12.90
2022-08-31T16:01:59.826Z,13.98
2022-08-31T16:04:27.751Z,10.05
2022-08-31T16:06:55.577Z,8.82
2022-08-31T16:09:30.797Z,10.02
2022-08-31T16:12:12.969Z,10.27
2022-08-31T16:14:53.611Z,8.38
2022-08-31T16:17:22.086Z,8.75
2022-08-31T16:19:52.125Z,7.32
2022-08-31T16:22:28.309Z,11.80
2022-08-31T16:24:59.177Z,7.60
2022-08-31T16:27:27.159Z,6.07
2022-08-31T16:30:01.841Z,8.65
2022-08-31T16:32:30.541Z,10.50
2022-08-31T16:34:59.733Z,7.25
2022-08-31T16:37:34.683Z,7.10
2022-08-31T16:40:02.818Z,9.63
2022-08-31T16:42:30.471Z,8.73
2022-08-31T16:45:04.561Z,10.65
2022-08-31T16:47:32.268Z,10.05
2022-08-31T16:50:00.943Z,8.05
2022-08-31T16:52:34.640Z,8.65
2022-08-31T16:55:02.363Z,10.80
2022-08-31T16:57:32.697Z,10.35
2022-08-31T17:00:08.605Z,12.23
2022-08-31T17:02:36.118Z,10.15
2022-08-31T17:05:04.782Z,9.25
2022-08-31T17:07:38.618Z,8.30
2022-08-31T17:10:07.308Z,9.25
2022-08-31T17:12:49.591Z,8.07
2022-08-31T17:15:19.129Z,11.25
2022-08-31T17:17:48.070Z,9.48
2022-08-31T17:20:25.619Z,9.95
2022-08-31T17:22:54.540Z,11.68
2022-08-31T17:25:24.258Z,9.93
2022-08-31T17:28:00.413Z,17.55
2022-08-31T17:30:29.340Z,17.40
2022-08-31T17:32:56.963Z,16.75
2022-08-31T17:35:32.628Z,12.35
2022-08-31T17:38:00.141Z,15.50
2022-08-31T17:40:27.823Z,14.63
2022-08-31T17:43:05.589Z,16.08
2022-08-31T17:45:35.757Z,10.85
2022-08-31T17:48:03.347Z,13.18
2022-08-31T17:50:37.994Z,11.30
2022-08-31T17:53:07.496Z,12.30
2022-08-31T17:55:37.096Z,13.93
2022-08-31T17:58:12.121Z,12.63
2022-08-31T18:00:39.757Z,13.30
2022-08-31T18:03:07.507Z,15.60
2022-08-31T18:05:44.877Z,12.25
2022-08-31T18:08:15.413Z,15.55
2022-08-31T18:10:57.000Z,14.50
2022-08-31T18:13:45.201Z,14.05
2022-08-31T18:16:22.469Z,15.95
2022-08-31T18:18:51.145Z,14.32
2022-08-31T18:21:30.517Z,15.68
2022-08-31T18:23:58.184Z,24.23
2022-08-31T18:26:28.791Z,18.13
2022-08-31T18:29:03.249Z,18.85
2022-08-31T18:31:31.868Z,19.65
2022-08-31T18:34:11.279Z,16.17
2022-08-31T18:36:40.630Z,17.70
2022-08-31T18:39:40.721Z,15.18
2022-08-31T18:42:28.402Z,17.73
2022-08-31T18:45:21.079Z,17.10
2022-08-31T18:50:52.889Z,21.05
2022-08-31T18:53:28.897Z,17.27
2022-08-31T18:56:16.872Z,21.80
2022-08-31T18:58:44.521Z,22.23
2022-08-31T19:01:15.601Z,20.75
2022-08-31T19:03:49.882Z,21.10
2022-08-31T19:06:23.719Z,19.67
2022-08-31T19:08:58.873Z,24.95
2022-08-31T19:11:26.447Z,22.88
2022-08-31T19:14:07.842Z,16.10
2022-08-31T19:16:42.556Z,23.50
2022-08-31T19:19:17.561Z,22.45
2022-08-31T19:21:45.733Z,25.35
2022-08-31T19:24:15.986Z,28.08
2022-08-31T19:26:58.638Z,28.73
2022-08-31T19:29:30.051Z,29.00
2022-08-31T19:32:06.399Z,30.08
2022-08-31T19:34:36.902Z,29.73
2022-08-31T19:37:14.476Z,27.17
2022-08-31T19:39:45.827Z,27.08
2022-08-31T19:42:40.143Z,33.60
2022-08-31T19:45:41.062Z,32.78
2022-08-31T19:48:06.733Z,32.25
2022-08-31T19:50:41.600Z,36.22
2022-08-31T19:53:21.257Z,36.92
2022-08-31T19:55:51.735Z,36.63
2022-08-31T19:58:32.597Z,39.53
2022-08-31T20:01:01.141Z,37.53
2022-08-31T20:03:31.348Z,36.50
2022-08-31T20:06:13.698Z,35.28
2022-08-31T20:08:42.700Z,42.67
2022-08-31T20:11:22.456Z,35.28
2022-08-31T20:14:00.341Z,31.35
2022-08-31T20:16:48.776Z,30.98
2022-08-31T20:19:25.144Z,33.45
2022-08-31T20:22:14.196Z,30.75
2022-08-31T20:24:45.039Z,26.30
2022-08-31T20:27:22.618Z,23.60
2022-08-31T20:29:53.367Z,27.42
2022-08-31T20:32:31.972Z,24.23
2022-08-31T20:35:02.297Z,29.50
2022-08-31T20:37:30.531Z,23.88
2022-08-31T20:40:05.731Z,22.65
2022-08-31T20:42:33.662Z,24.13
2022-08-31T20:45:03.814Z,21.35
2022-08-31T20:47:59.934Z,20.30
2022-08-31T20:50:29.951Z,18.63
2022-08-31T20:53:01.430Z,18.52
2022-08-31T20:55:35.514Z,18.15
2022-08-31T20:58:07.223Z,19.33
2022-08-31T21:00:49.826Z,17.55
2022-08-31T21:03:24.654Z,18.15
2022-08-31T21:05:52.227Z,16.35
2022-08-31T21:08:27.328Z,16.48
2022-08-31T21:10:54.883Z,19.30
2022-08-31T21:13:36.325Z,20.40
2022-08-31T21:16:10.761Z,22.35
2022-08-31T21:18:47.332Z,19.13
2022-08-31T21:21:17.461Z,17.85
2022-08-31T21:24:01.583Z,19.38
2022-08-31T21:26:31.307Z,17.48
2022-08-31T21:28:59.968Z,17.45
2022-08-31T21:31:36.322Z,19.27
2022-08-31T21:34:11.513Z,19.92
2022-08-31T21:36:46.729Z,18.70
2022-08-31T21:39:19.244Z,18.55
2022-08-31T21:41:55.786Z,17.85
2022-08-31T21:44:24.477Z,22.77
2022-08-31T21:46:52.630Z,15.60
2022-08-31T21:49:26.784Z,19.63
2022-08-31T21:51:56.447Z,19.02
2022-08-31T21:54:33.770Z,18.92
2022-08-31T21:57:03.206Z,17.33
2022-08-31T21:59:43.784Z,17.45
2022-08-31T22:02:12.195Z,15.38
2022-08-31T22:04:42.281Z,14.73
2022-08-31T22:07:20.764Z,18.63
2022-08-31T22:09:50.323Z,13.60
2022-08-31T22:12:32.316Z,15.95
2022-08-31T22:15:10.263Z,13.75
2022-08-31T22:18:09.558Z,14.65
2022-08-31T22:20:38.702Z,13.77
2022-08-31T22:23:16.465Z,21.50
2022-08-31T22:25:44.200Z,15.98
2022-08-31T22:28:12.856Z,21.27
2022-08-31T22:30:48.464Z,16.50
2022-08-31T22:33:16.156Z,13.48
2022-08-31T22:35:43.589Z,16.17
2022-08-31T22:38:21.478Z,17.25
2022-08-31T22:40:50.217Z,15.00
2022-08-31T22:43:17.901Z,15.40
2022-08-31T22:45:52.417Z,18.90
2022-08-31T22:48:19.961Z,20.38
2022-08-31T22:50:47.639Z,13.40
2022-08-31T22:53:24.353Z,12.95
2022-08-31T22:55:51.786Z,14.02
2022-08-31T22:58:19.452Z,14.77
2022-08-31T23:00:54.340Z,13.55
2022-08-31T23:03:22.224Z,16.05
2022-08-31T23:05:52.095Z,15.98
2022-08-31T23:08:28.369Z,18.08
2022-08-31T23:10:56.763Z,23.17
2022-08-31T23:13:57.376Z,13.98
2022-08-31T23:16:37.272Z,17.13
2022-08-31T23:19:19.359Z,17.52
2022-08-31T23:21:52.902Z,15.07
2022-08-31T23:24:43.491Z,14.45
2022-08-31T23:27:13.164Z,15.90
2022-08-31T23:29:54.477Z,14.55
2022-08-31T23:32:27.810Z,14.05
2022-08-31T23:35:03.485Z,12.90
2022-08-31T23:37:32.241Z,15.20
2022-08-31T23:40:02.898Z,15.73
2022-08-31T23:42:37.480Z,15.32
2022-08-31T23:45:05.356Z,19.45
2022-08-31T23:47:33.032Z,15.48
2022-08-31T23:50:11.526Z,18.85
2022-08-31T23:52:43.916Z,18.48
2022-08-31T23:55:11.983Z,17.52
2022-08-31T23:57:47.342Z,19.90
